createdAt,value
2018-05-13T00:01:08.207Z,53.90
2018-05-13T00:03:35.766Z,49.07
2018-05-13T00:06:03.277Z,46.23
2018-05-13T00:08:30.787Z,50.97
2018-05-13T00:10:58.384Z,51.47
2018-05-13T00:13:25.877Z,52.93
2018-05-13T00:15:54.103Z,52.30
2018-05-13T00:18:21.624Z,47.50
2018-05-13T00:20:49.862Z,50.97
2018-05-13T00:23:17.331Z,47.27
2018-05-13T00:25:45.967Z,45.97
2018-05-13T00:28:13.453Z,45.03
2018-05-13T00:30:41.062Z,48.47
2018-05-13T00:33:08.578Z,54.30
2018-05-13T00:35:36.126Z,52.27
2018-05-13T00:38:03.632Z,50.07
2018-05-13T00:40:31.154Z,47.27
2018-05-13T00:42:58.692Z,50.77
2018-05-13T00:45:26.958Z,51.30
2018-05-13T00:47:54.479Z,45.13
2018-05-13T00:50:21.996Z,49.90
2018-05-13T00:52:49.614Z,53.77
2018-05-13T00:55:17.473Z,51.07
2018-05-13T00:57:44.995Z,54.77
2018-05-13T01:00:12.598Z,51.70
2018-05-13T01:02:40.819Z,56.80
2018-05-13T01:05:08.448Z,54.30
2018-05-13T01:07:35.898Z,58.07
2018-05-13T01:10:03.403Z,54.73
2018-05-13T01:12:31.846Z,57.20
2018-05-13T01:14:59.312Z,54.03
2018-05-13T01:17:27.162Z,56.17
2018-05-13T01:19:54.645Z,58.83
2018-05-13T01:22:22.132Z,62.53
2018-05-13T01:24:49.603Z,54.10
2018-05-13T01:27:17.094Z,51.80
2018-05-13T01:29:45.550Z,49.20
2018-05-13T01:32:13.053Z,63.10
2018-05-13T01:34:40.514Z,51.97
2018-05-13T01:37:08.040Z,58.50
2018-05-13T01:39:36.287Z,56.87
2018-05-13T01:42:03.786Z,60.53
2018-05-13T01:44:32.156Z,48.77
2018-05-13T01:46:59.581Z,56.67
2018-05-13T01:49:27.095Z,58.20
2018-05-13T01:51:55.415Z,57.10
2018-05-13T01:54:23.287Z,48.03
2018-05-13T01:56:50.739Z,51.50
2018-05-13T01:59:18.244Z,52.97
2018-05-13T02:01:46.082Z,49.63
2018-05-13T02:04:13.516Z,47.67
2018-05-13T02:06:41.809Z,53.37
2018-05-13T02:09:09.449Z,52.07
2018-05-13T02:11:36.958Z,53.73
2018-05-13T02:14:04.432Z,46.90
2018-05-13T02:16:31.971Z,53.03
2018-05-13T02:18:59.458Z,48.97
2018-05-13T02:21:27.028Z,47.67
2018-05-13T02:23:54.515Z,50.83
2018-05-13T02:26:22.018Z,57.40
2018-05-13T02:28:49.651Z,54.33
2018-05-13T02:31:18.020Z,49.77
2018-05-13T02:33:45.728Z,52.10
2018-05-13T02:36:13.234Z,46.23
2018-05-13T02:38:40.757Z,52.17
2018-05-13T02:41:08.288Z,46.03
2018-05-13T02:43:35.871Z,55.10
2018-05-13T02:46:04.183Z,48.77
2018-05-13T02:48:31.717Z,49.97
2018-05-13T02:50:59.203Z,49.53
2018-05-13T02:53:26.800Z,50.60
2018-05-13T02:55:54.300Z,47.27
2018-05-13T02:58:22.114Z,48.80
2018-05-13T03:00:49.620Z,52.20
2018-05-13T03:03:17.131Z,51.53
2018-05-13T03:05:45.370Z,50.87
2018-05-13T03:08:12.872Z,54.77
2018-05-13T03:10:40.440Z,54.83
2018-05-13T03:13:07.939Z,52.47
2018-05-13T03:15:35.392Z,54.90
2018-05-13T03:18:02.940Z,53.93
2018-05-13T03:20:30.520Z,51.63
2018-05-13T03:22:59.061Z,47.27
2018-05-13T03:25:26.575Z,54.70
2018-05-13T03:27:54.297Z,50.43
2018-05-13T03:30:21.794Z,59.10
2018-05-13T03:32:49.353Z,51.60
2018-05-13T03:35:17.578Z,55.73
2018-05-13T03:37:45.156Z,59.37
2018-05-13T03:40:13.440Z,51.43
2018-05-13T03:42:41.701Z,48.70
2018-05-13T03:45:09.423Z,57.13
2018-05-13T03:47:37.001Z,54.03
2018-05-13T03:50:05.220Z,54.23
2018-05-13T03:52:32.776Z,56.57
2018-05-13T03:55:00.214Z,58.73
2018-05-13T03:57:27.721Z,54.43
2018-05-13T03:59:55.249Z,56.83
2018-05-13T04:02:22.711Z,58.93
2018-05-13T04:04:50.165Z,58.47
2018-05-13T04:07:17.673Z,55.67
2018-05-13T04:09:45.980Z,62.17
2018-05-13T04:12:13.444Z,57.40
2018-05-13T04:14:40.959Z,60.47
2018-05-13T04:17:08.454Z,58.10
2018-05-13T04:19:36.910Z,59.60
2018-05-13T04:22:04.432Z,55.13
2018-05-13T04:24:32.006Z,57.77
2018-05-13T04:26:59.481Z,54.23
2018-05-13T04:29:26.992Z,69.90
2018-05-13T04:31:54.506Z,54.50
2018-05-13T04:34:22.105Z,56.73
2018-05-13T04:36:50.382Z,57.20
2018-05-13T04:39:17.834Z,53.40
2018-05-13T04:41:45.364Z,53.07
2018-05-13T04:44:12.866Z,50.57
2018-05-13T04:46:40.405Z,52.53
2018-05-13T04:49:07.924Z,51.37
2018-05-13T04:51:35.407Z,48.60
2018-05-13T04:54:02.908Z,51.00
2018-05-13T04:56:30.386Z,47.07
2018-05-13T04:58:57.865Z,46.50
2018-05-13T05:01:26.127Z,45.80
2018-05-13T05:03:54.406Z,42.53
2018-05-13T05:06:21.933Z,39.60
2018-05-13T05:08:49.529Z,46.77
2018-05-13T05:11:17.911Z,44.03
2018-05-13T05:13:45.472Z,47.67
2018-05-13T05:16:12.965Z,42.40
2018-05-13T05:18:40.453Z,43.97
2018-05-13T05:21:07.936Z,43.77
2018-05-13T05:23:35.447Z,41.90
2018-05-13T05:26:04.107Z,35.73
2018-05-13T05:28:31.541Z,40.07
2018-05-13T05:30:59.012Z,37.83
2018-05-13T05:33:27.279Z,38.67
2018-05-13T05:35:54.800Z,44.83
2018-05-13T05:38:22.490Z,38.47
2018-05-13T05:40:50.825Z,35.90
2018-05-13T05:43:18.340Z,34.00
2018-05-13T05:45:45.787Z,36.23
2018-05-13T05:48:14.037Z,39.40
2018-05-13T05:50:41.554Z,36.90
2018-05-13T05:53:09.398Z,34.17
2018-05-13T05:55:40.774Z,35.13
2018-05-13T05:58:11.308Z,36.23
2018-05-13T06:00:39.816Z,33.50
2018-05-13T06:03:07.313Z,36.93
2018-05-13T06:05:34.713Z,32.83
2018-05-13T06:08:02.284Z,35.80
2018-05-13T06:10:29.727Z,34.80
2018-05-13T06:12:57.235Z,32.93
2018-05-13T06:15:24.738Z,33.37
2018-05-13T06:17:53.014Z,32.97
2018-05-13T06:20:20.522Z,33.07
2018-05-13T06:22:48.149Z,32.60
2018-05-13T06:25:16.661Z,35.00
2018-05-13T06:27:44.896Z,31.23
2018-05-13T06:30:12.517Z,29.30
2018-05-13T06:32:40.015Z,30.33
2018-05-13T06:35:07.618Z,39.13
2018-05-13T06:37:36.256Z,28.43
2018-05-13T06:40:03.851Z,28.93
2018-05-13T06:42:31.375Z,32.60
2018-05-13T06:44:58.999Z,27.53
2018-05-13T06:47:26.590Z,26.70
2018-05-13T06:49:54.843Z,28.60
2018-05-13T06:52:22.371Z,27.90
2018-05-13T06:54:49.964Z,26.57
2018-05-13T06:57:18.605Z,26.27
2018-05-13T06:59:46.155Z,25.30
2018-05-13T07:02:13.720Z,24.73
2018-05-13T07:04:41.205Z,24.93
2018-05-13T07:07:08.794Z,26.80
2018-05-13T07:09:36.257Z,22.80
2018-05-13T07:12:03.869Z,24.13
2018-05-13T07:14:31.368Z,23.13
2018-05-13T07:16:58.895Z,24.30
2018-05-13T07:19:27.136Z,23.23
2018-05-13T07:21:54.780Z,24.13
2018-05-13T07:24:22.260Z,23.60
2018-05-13T07:26:49.745Z,21.20
2018-05-13T07:29:18.164Z,20.47
2018-05-13T07:31:45.597Z,28.80
2018-05-13T07:34:13.941Z,23.80
2018-05-13T07:36:41.467Z,23.47
2018-05-13T07:39:09.743Z,22.23
2018-05-13T07:41:37.232Z,22.33
2018-05-13T07:44:04.744Z,29.90
2018-05-13T07:46:32.236Z,21.53
2018-05-13T07:48:59.832Z,24.67
2018-05-13T07:51:27.429Z,23.87
2018-05-13T07:53:55.742Z,24.97
2018-05-13T07:56:23.268Z,24.60
2018-05-13T07:58:50.826Z,24.60
2018-05-13T08:01:18.299Z,24.73
2018-05-13T08:03:45.770Z,24.23
2018-05-13T08:06:14.112Z,24.80
2018-05-13T08:08:41.612Z,26.17
2018-05-13T08:11:09.916Z,28.10
2018-05-13T08:13:37.430Z,24.73
2018-05-13T08:16:04.957Z,24.30
2018-05-13T08:18:32.463Z,23.60
2018-05-13T08:20:59.982Z,31.60
2018-05-13T08:23:27.462Z,25.07
2018-05-13T08:25:55.778Z,23.70
2018-05-13T08:28:23.427Z,23.20
2018-05-13T08:30:51.469Z,21.97
2018-05-13T08:33:18.960Z,23.40
2018-05-13T08:35:46.525Z,23.50
2018-05-13T08:38:14.925Z,22.63
2018-05-13T08:40:42.451Z,22.30
2018-05-13T08:43:10.353Z,20.83
2018-05-13T08:45:38.055Z,19.80
2018-05-13T08:48:06.361Z,21.20
2018-05-13T08:50:33.978Z,20.10
2018-05-13T08:53:01.611Z,19.67
2018-05-13T08:55:29.885Z,21.87
2018-05-13T08:57:57.530Z,19.23
2018-05-13T09:00:25.832Z,23.83
2018-05-13T09:02:53.356Z,21.50
2018-05-13T09:05:22.293Z,21.37
2018-05-13T09:07:50.527Z,22.70
2018-05-13T09:10:18.839Z,22.37
2018-05-13T09:12:46.363Z,26.20
2018-05-13T09:15:13.860Z,25.20
2018-05-13T09:17:41.373Z,22.27
2018-05-13T09:20:08.941Z,29.83
2018-05-13T09:22:36.679Z,22.93
2018-05-13T09:25:05.571Z,23.60
2018-05-13T09:27:33.331Z,18.77
2018-05-13T09:30:00.834Z,17.80
2018-05-13T09:32:28.455Z,15.37
2018-05-13T09:34:56.063Z,16.47
2018-05-13T09:37:23.587Z,12.63
2018-05-13T09:39:51.178Z,11.47
2018-05-13T09:42:18.889Z,9.80
2018-05-13T09:44:46.534Z,11.43
2018-05-13T09:47:14.045Z,8.83
2018-05-13T09:49:41.607Z,14.60
2018-05-13T09:52:10.421Z,9.40
2018-05-13T09:54:37.887Z,9.93
2018-05-13T09:57:05.378Z,9.47
2018-05-13T09:59:32.928Z,8.67
2018-05-13T10:02:00.577Z,8.70
2018-05-13T10:04:28.830Z,10.43
2018-05-13T10:06:57.865Z,8.60
2018-05-13T10:09:25.507Z,9.50
2018-05-13T10:11:52.887Z,9.73
2018-05-13T10:14:20.439Z,8.97
2018-05-13T10:16:48.720Z,8.93
2018-05-13T10:19:16.195Z,8.07
2018-05-13T10:21:43.683Z,8.70
2018-05-13T10:24:11.260Z,9.47
2018-05-13T10:26:38.749Z,10.50
2018-05-13T10:29:07.107Z,10.70
2018-05-13T10:31:34.790Z,10.83
2018-05-13T10:34:03.780Z,12.37
2018-05-13T10:36:32.085Z,8.77
2018-05-13T10:38:59.633Z,11.50
2018-05-13T10:41:27.978Z,11.23
2018-05-13T10:43:55.498Z,11.63
2018-05-13T10:46:23.066Z,11.57
2018-05-13T10:48:50.559Z,11.73
2018-05-13T10:51:18.112Z,15.30
2018-05-13T10:53:45.639Z,12.60
2018-05-13T10:56:13.439Z,13.07
2018-05-13T10:58:40.930Z,12.97
2018-05-13T11:01:08.445Z,12.90
2018-05-13T11:03:36.748Z,13.10
2018-05-13T11:06:04.345Z,19.43
2018-05-13T11:08:32.660Z,17.57
2018-05-13T11:11:02.503Z,20.30
2018-05-13T11:13:30.942Z,20.50
2018-05-13T11:15:58.463Z,18.80
2018-05-13T11:18:25.893Z,20.47
2018-05-13T11:20:53.450Z,32.10
2018-05-13T11:23:22.032Z,38.37
2018-05-13T11:25:49.506Z,35.00
2018-05-13T11:28:17.803Z,40.90
2018-05-13T11:30:45.347Z,48.20
2018-05-13T11:33:13.656Z,42.93
2018-05-13T11:35:41.665Z,49.67
2018-05-13T11:38:09.235Z,51.77
2018-05-13T11:40:36.754Z,55.70
2018-05-13T11:43:05.129Z,61.07
2018-05-13T11:45:32.604Z,56.53
2018-05-13T11:48:00.120Z,50.90
2018-05-13T11:50:27.619Z,51.03
2018-05-13T11:52:55.271Z,53.90
2018-05-13T11:55:22.716Z,48.83
2018-05-13T11:57:50.314Z,57.13
2018-05-13T12:00:17.786Z,56.37
2018-05-13T12:02:45.275Z,55.13
2018-05-13T12:05:12.820Z,52.57
2018-05-13T12:07:40.354Z,53.90
2018-05-13T12:10:08.748Z,50.33
2018-05-13T12:12:37.046Z,58.87
2018-05-13T12:15:04.615Z,51.30
2018-05-13T12:17:32.083Z,51.70
2018-05-13T12:19:59.592Z,61.53
2018-05-13T12:22:27.123Z,53.80
2018-05-13T12:24:55.254Z,50.90
2018-05-13T12:27:22.839Z,48.53
2018-05-13T12:29:50.519Z,57.67
2018-05-13T12:32:18.018Z,60.53
2018-05-13T12:34:45.534Z,68.60
2018-05-13T12:37:13.017Z,81.23
2018-05-13T12:39:40.606Z,83.50
2018-05-13T12:42:09.148Z,88.77
2018-05-13T12:44:36.633Z,120.03
2018-05-13T12:47:04.158Z,133.90
2018-05-13T12:49:31.659Z,143.80
2018-05-13T12:51:59.903Z,140.67
2018-05-13T12:54:28.200Z,147.30
2018-05-13T12:56:55.711Z,141.70
2018-05-13T12:59:23.351Z,149.80
2018-05-13T13:01:50.937Z,135.17
2018-05-13T13:04:18.510Z,132.63
2018-05-13T13:06:46.050Z,135.20
2018-05-13T13:09:13.595Z,129.30
2018-05-13T13:11:41.273Z,111.70
2018-05-13T13:14:08.877Z,103.77
2018-05-13T13:16:36.392Z,101.60
2018-05-13T13:19:03.971Z,77.43
2018-05-13T13:21:31.729Z,85.07
2018-05-13T13:24:00.034Z,67.23
2018-05-13T13:26:27.664Z,66.97
2018-05-13T13:28:55.278Z,60.70
2018-05-13T13:31:23.011Z,67.27
2018-05-13T13:33:51.235Z,69.33
2018-05-13T13:36:19.058Z,68.70
2018-05-13T13:38:48.094Z,80.50
2018-05-13T13:41:15.971Z,95.73
2018-05-13T13:43:44.348Z,78.47
2018-05-13T13:46:11.952Z,104.07
2018-05-13T13:48:39.532Z,88.77
2018-05-13T13:51:07.073Z,94.90
2018-05-13T13:53:35.526Z,91.60
2018-05-13T13:56:03.437Z,97.83
2018-05-13T13:58:31.819Z,95.10
2018-05-13T14:01:00.151Z,98.87
2018-05-13T14:03:27.686Z,104.00
2018-05-13T14:05:55.260Z,98.27
2018-05-13T14:08:22.885Z,83.40
2018-05-13T14:10:51.255Z,73.67
2018-05-13T14:13:19.644Z,75.27
2018-05-13T14:15:47.203Z,68.17
2018-05-13T14:18:15.651Z,69.43
2018-05-13T14:20:44.017Z,64.10
2018-05-13T14:23:11.601Z,67.57
2018-05-13T14:25:39.343Z,73.43
2018-05-13T14:28:07.155Z,74.67
2018-05-13T14:30:36.985Z,77.53
2018-05-13T14:33:04.541Z,71.00
2018-05-13T14:35:32.126Z,61.07
2018-05-13T14:37:59.958Z,69.83
2018-05-13T14:40:27.390Z,61.07
2018-05-13T14:42:55.210Z,63.97
2018-05-13T14:45:23.465Z,69.30
2018-05-13T14:47:51.510Z,81.73
2018-05-13T14:50:19.216Z,88.07
2018-05-13T14:52:46.732Z,85.10
2018-05-13T14:55:15.003Z,93.93
2018-05-13T14:57:43.249Z,95.53
2018-05-13T15:00:11.116Z,95.07
2018-05-13T15:02:39.273Z,107.70
2018-05-13T15:05:06.899Z,107.57
2018-05-13T15:07:34.741Z,117.00
2018-05-13T15:10:02.255Z,123.13
2018-05-13T15:12:30.592Z,117.37
2018-05-13T15:14:58.169Z,119.57
2018-05-13T15:17:25.649Z,118.73
2018-05-13T15:19:53.465Z,116.10
2018-05-13T15:22:20.976Z,117.30
2018-05-13T15:24:49.344Z,120.93
2018-05-13T15:27:16.867Z,119.77
2018-05-13T15:29:44.472Z,111.43
2018-05-13T15:32:11.964Z,109.87
2018-05-13T15:34:40.253Z,99.43
2018-05-13T15:37:07.829Z,113.27
2018-05-13T15:39:35.314Z,99.23
2018-05-13T15:42:03.008Z,118.80
2018-05-13T15:44:30.536Z,99.77
2018-05-13T15:46:58.839Z,102.47
2018-05-13T15:49:26.350Z,102.37
2018-05-13T15:51:54.643Z,111.17
2018-05-13T15:54:22.177Z,105.77
2018-05-13T15:56:49.659Z,96.50
2018-05-13T15:59:19.099Z,109.03
2018-05-13T16:01:46.614Z,84.73
2018-05-13T16:04:14.907Z,88.23
2018-05-13T16:06:48.008Z,86.83
2018-05-13T16:09:16.241Z,92.07
2018-05-13T16:11:43.741Z,92.67
2018-05-13T16:14:11.282Z,85.20
2018-05-13T16:16:38.801Z,76.57
2018-05-13T16:19:06.274Z,77.03
2018-05-13T16:21:34.836Z,82.00
2018-05-13T16:24:02.358Z,77.37
2018-05-13T16:26:29.900Z,83.50
2018-05-13T16:28:57.383Z,73.33
2018-05-13T16:31:24.907Z,85.00
2018-05-13T16:33:52.446Z,82.40
2018-05-13T16:36:19.959Z,81.30
2018-05-13T16:38:47.608Z,81.23
2018-05-13T16:41:15.070Z,77.83
2018-05-13T16:43:42.659Z,82.70
2018-05-13T16:46:11.211Z,87.03
2018-05-13T16:48:39.301Z,79.40
2018-05-13T16:51:07.606Z,79.40
2018-05-13T16:53:35.032Z,66.70
2018-05-13T16:56:02.568Z,81.70
2018-05-13T16:58:30.680Z,66.30
2018-05-13T17:00:58.931Z,71.37
2018-05-13T17:03:27.233Z,73.57
2018-05-13T17:05:54.991Z,64.43
2018-05-13T17:08:22.949Z,62.27
2018-05-13T17:10:50.442Z,66.30
2018-05-13T17:13:18.676Z,62.93
2018-05-13T17:15:47.037Z,67.83
2018-05-13T17:18:14.568Z,65.20
2018-05-13T17:20:42.354Z,70.40
2018-05-13T17:23:09.882Z,74.73
2018-05-13T17:25:37.354Z,63.37
2018-05-13T17:28:05.052Z,72.97
2018-05-13T17:30:32.597Z,65.13
2018-05-13T17:33:00.079Z,79.20
2018-05-13T17:35:27.621Z,75.47
2018-05-13T17:37:55.191Z,74.80
2018-05-13T17:40:23.141Z,69.63
2018-05-13T17:42:50.637Z,68.77
2018-05-13T17:45:18.891Z,69.97
2018-05-13T17:47:46.434Z,74.77
2018-05-13T17:50:14.308Z,71.77
2018-05-13T17:52:41.806Z,75.93
2018-05-13T17:55:09.306Z,73.90
2018-05-13T17:57:36.924Z,74.97
2018-05-13T18:00:04.373Z,77.07
2018-05-13T18:02:32.730Z,74.07
2018-05-13T18:05:00.245Z,77.67
2018-05-13T18:07:28.571Z,80.77
2018-05-13T18:09:56.093Z,79.90
2018-05-13T18:12:23.605Z,87.67
2018-05-13T18:14:51.117Z,84.27
2018-05-13T18:17:18.676Z,87.30
2018-05-13T18:19:46.218Z,95.47
2018-05-13T18:22:15.022Z,103.20
2018-05-13T18:24:42.645Z,99.80
2018-05-13T18:27:11.566Z,100.87
2018-05-13T18:29:39.109Z,107.27
2018-05-13T18:32:07.463Z,124.00
2018-05-13T18:34:34.949Z,111.97
2018-05-13T18:37:03.253Z,124.60
2018-05-13T18:39:30.856Z,135.10
2018-05-13T18:41:58.427Z,106.67
2018-05-13T18:44:26.183Z,120.10
2018-05-13T18:46:53.911Z,117.73
2018-05-13T18:49:21.548Z,123.03
2018-05-13T18:51:49.019Z,121.83
2018-05-13T18:54:16.528Z,122.77
2018-05-13T18:56:44.873Z,132.70
2018-05-13T18:59:13.219Z,114.70
2018-05-13T19:01:40.913Z,130.40
2018-05-13T19:04:08.424Z,127.90
2018-05-13T19:06:36.806Z,124.50
2018-05-13T19:09:04.301Z,123.37
2018-05-13T19:11:31.994Z,146.80
2018-05-13T19:13:59.663Z,132.20
2018-05-13T19:16:27.984Z,134.97
2018-05-13T19:18:55.515Z,138.23
2018-05-13T19:21:23.237Z,133.67
2018-05-13T19:23:51.142Z,135.50
2018-05-13T19:26:19.849Z,131.67
2018-05-13T19:28:48.725Z,132.70
2018-05-13T19:31:16.435Z,126.00
2018-05-13T19:33:44.988Z,135.47
2018-05-13T19:36:12.748Z,149.27
2018-05-13T19:38:40.402Z,151.07
2018-05-13T19:41:08.102Z,159.73
2018-05-13T19:43:35.770Z,153.20
2018-05-13T19:46:03.718Z,158.33
2018-05-13T19:48:31.350Z,152.77
2018-05-13T19:50:58.911Z,153.27
2018-05-13T19:53:27.212Z,146.03
2018-05-13T19:55:54.954Z,151.03
2018-05-13T19:58:22.641Z,154.40
2018-05-13T20:00:50.121Z,143.57
2018-05-13T20:03:17.910Z,140.30
2018-05-13T20:05:47.381Z,154.17
2018-05-13T20:08:15.617Z,164.47
2018-05-13T20:10:43.963Z,160.90
2018-05-13T20:13:11.480Z,153.13
2018-05-13T20:15:39.099Z,142.73
2018-05-13T20:18:06.571Z,140.47
2018-05-13T20:20:34.094Z,139.70
2018-05-13T20:23:02.421Z,150.47
2018-05-13T20:25:29.953Z,148.90
2018-05-13T20:27:57.495Z,147.93
2018-05-13T20:30:25.122Z,147.37
2018-05-13T20:32:52.730Z,163.90
2018-05-13T20:35:20.272Z,157.03
2018-05-13T20:37:47.797Z,155.00
2018-05-13T20:40:15.334Z,137.63
2018-05-13T20:42:42.883Z,147.47
2018-05-13T20:45:10.450Z,141.20
2018-05-13T20:47:38.047Z,144.80
2018-05-13T20:50:05.831Z,155.40
2018-05-13T20:52:33.368Z,146.67
2018-05-13T20:55:00.912Z,142.80
2018-05-13T20:57:28.478Z,152.80
2018-05-13T20:59:56.703Z,155.70
2018-05-13T21:02:24.343Z,161.00
2018-05-13T21:04:51.809Z,145.63
2018-05-13T21:07:19.291Z,133.60
2018-05-13T21:09:47.666Z,151.07
2018-05-13T21:12:15.178Z,149.77
2018-05-13T21:14:43.452Z,148.90
2018-05-13T21:17:10.979Z,154.50
2018-05-13T21:19:38.551Z,136.27
2018-05-13T21:22:06.078Z,152.10
2018-05-13T21:24:33.587Z,155.27
2018-05-13T21:27:01.083Z,166.77
2018-05-13T21:29:28.596Z,155.77
2018-05-13T21:31:56.181Z,149.70
2018-05-13T21:34:23.707Z,154.23
2018-05-13T21:36:51.232Z,164.50
2018-05-13T21:39:19.512Z,157.07
2018-05-13T21:41:47.726Z,160.73
2018-05-13T21:44:15.323Z,154.57
2018-05-13T21:46:42.888Z,152.73
2018-05-13T21:49:10.558Z,153.63
2018-05-13T21:51:38.513Z,172.20
2018-05-13T21:54:05.975Z,152.57
2018-05-13T21:56:34.278Z,148.13
2018-05-13T21:59:01.798Z,151.00
2018-05-13T22:01:29.362Z,153.63
2018-05-13T22:03:56.908Z,146.43
2018-05-13T22:06:25.061Z,138.27
2018-05-13T22:08:53.298Z,136.50
2018-05-13T22:11:20.814Z,141.00
2018-05-13T22:13:48.335Z,134.30
2018-05-13T22:16:15.852Z,140.40
2018-05-13T22:18:43.370Z,143.67
2018-05-13T22:21:10.894Z,132.50
2018-05-13T22:23:39.255Z,131.17
2018-05-13T22:26:06.792Z,131.77
2018-05-13T22:28:35.107Z,143.90
2018-05-13T22:31:02.778Z,137.40
2018-05-13T22:33:30.256Z,146.77
2018-05-13T22:35:57.767Z,142.13
2018-05-13T22:38:26.071Z,141.00
2018-05-13T22:40:53.583Z,131.20
2018-05-13T22:43:21.132Z,144.80
2018-05-13T22:45:49.445Z,135.27
2018-05-13T22:48:17.075Z,133.37
2018-05-13T22:50:45.531Z,131.20
2018-05-13T22:53:13.017Z,125.53
2018-05-13T22:55:40.503Z,127.27
2018-05-13T22:58:08.084Z,133.43
2018-05-13T23:00:35.718Z,133.70
2018-05-13T23:03:03.166Z,139.77
2018-05-13T23:05:30.828Z,132.13
2018-05-13T23:07:58.560Z,127.33
2018-05-13T23:10:26.081Z,127.50
2018-05-13T23:12:54.312Z,137.57
2018-05-13T23:15:22.822Z,131.00
2018-05-13T23:17:50.361Z,130.70
2018-05-13T23:20:18.088Z,131.77
2018-05-13T23:22:45.741Z,129.73
2018-05-13T23:25:13.241Z,133.10
2018-05-13T23:27:40.730Z,141.23
2018-05-13T23:30:09.065Z,134.70
2018-05-13T23:32:36.911Z,133.10
2018-05-13T23:35:04.439Z,135.07
2018-05-13T23:37:32.664Z,135.13
2018-05-13T23:40:00.175Z,134.43
2018-05-13T23:42:27.649Z,138.90
2018-05-13T23:44:55.901Z,147.90
2018-05-13T23:47:23.614Z,136.23
2018-05-13T23:49:51.317Z,147.30
2018-05-13T23:52:19.877Z,144.80
2018-05-13T23:54:47.381Z,139.67
2018-05-13T23:57:14.876Z,144.10
2018-05-13T23:59:43.152Z,151.73
